Ana Sayfa
METAR-TAF:

METAR-TAF

Havaalanları :

Tin City, Alaska, Amerika Birleşik Devletleri

Enlem: 65-34N, Boylam: 167-55W, yükseklik: 83 m

Güncel hava durumu gözlemi

Rapor saat 11:55 UTC de 1 saat ve 10 dakika önce yapıldı.
Rüzgar kuzeydan 20 kt
Sıcaklık -26°C
Nem 76%
Basınç 1021 hPa
Görüş mesafesi: 6.4 km
3900 ft yükseklikte parçalı çok bulutlu
hafif kar

METAR: PATC 281155Z AUTO 01020KT 4SM -SN BKN039 M26/M29 A3014 RMK AO2 SNB0955 SLP222 P0000 60000 T12651294 11257 21274 57008

Saat: 04:05 (13:05 UTC)


TAF: eksik

4.000'den fazla havaalanı için hava durumu gözlemleri ve tahminleri (METAR ve TAF raporları).

Kullanılabilir istasyonlar harita üzerinde sarı ve kırmızı noktalarla gösterilir.

İstasyonun adını görmek için fareyi noktanın üzerinde gezdirin.

Sonrasında hava gözlem ve tahminlerini görmek için tıklayın.

Haritayı değiştirmek için: yaklaştırmak için siyah artı işaretli yeşil düğmeye ve uzaklaştırmak için de eksi işaretli düğmeye hızla tıklayın; bitişik haritalar için yeşil okları kullanın.


METAR-TAF: